createdAt,value
2022-07-26T00:00:39.047Z,21.63
2022-07-26T00:05:40.214Z,21.53
2022-07-26T00:10:41.329Z,21.56
2022-07-26T00:15:43.463Z,21.45
2022-07-26T00:20:42.573Z,21.53
2022-07-26T00:25:44.678Z,21.46
2022-07-26T00:30:43.923Z,21.42
2022-07-26T00:35:45.011Z,21.30
2022-07-26T00:40:47.161Z,20.79
2022-07-26T00:45:46.351Z,20.59
2022-07-26T00:50:47.450Z,20.68
2022-07-26T00:55:48.588Z,20.68
2022-07-26T01:00:49.853Z,20.91
2022-07-26T01:05:51.037Z,20.77
2022-07-26T01:10:53.216Z,20.64
2022-07-26T01:15:52.400Z,20.64
2022-07-26T01:20:54.501Z,20.23
2022-07-26T01:25:54.601Z,20.09
2022-07-26T01:30:53.645Z,20.03
2022-07-26T01:35:54.737Z,20.18
2022-07-26T01:40:56.840Z,20.18
2022-07-26T01:45:57.013Z,20.25
2022-07-26T01:50:57.207Z,20.31
2022-07-26T01:55:56.310Z,20.24
2022-07-26T02:00:58.420Z,20.08
2022-07-26T02:05:57.551Z,20.08
2022-07-26T02:10:59.692Z,19.93
2022-07-26T02:15:58.915Z,19.97
2022-07-26T02:21:00.077Z,19.78
2022-07-26T02:26:01.175Z,19.78
2022-07-26T02:31:03.344Z,19.57
2022-07-26T02:36:03.429Z,19.68
2022-07-26T02:41:02.579Z,19.60
2022-07-26T02:46:04.746Z,19.65
2022-07-26T02:51:04.887Z,19.66
2022-07-26T02:56:05.014Z,19.72
2022-07-26T03:01:04.148Z,19.70
2022-07-26T03:06:05.313Z,19.73
2022-07-26T03:11:10.340Z,19.70
2022-07-26T03:16:06.486Z,19.73
2022-07-26T03:21:08.693Z,19.72
2022-07-26T03:26:07.826Z,19.61
2022-07-26T03:31:09.028Z,19.65
2022-07-26T03:36:11.471Z,19.68
2022-07-26T03:41:13.668Z,19.51
2022-07-26T03:46:11.073Z,19.50
2022-07-26T03:51:12.226Z,19.46
2022-07-26T03:56:13.362Z,19.42
2022-07-26T04:01:14.773Z,19.14
2022-07-26T04:06:15.882Z,19.06
2022-07-26T04:11:18.009Z,19.24
2022-07-26T04:16:17.139Z,19.33
2022-07-26T04:21:18.263Z,19.46
2022-07-26T04:26:19.383Z,19.86
2022-07-26T04:31:20.598Z,20.15
2022-07-26T04:36:22.721Z,20.24
2022-07-26T04:41:22.831Z,20.50
2022-07-26T04:46:22.057Z,20.86
2022-07-26T04:51:23.218Z,21.26
2022-07-26T04:56:25.462Z,21.46
2022-07-26T05:01:24.655Z,20.77
2022-07-26T05:06:25.798Z,20.51
2022-07-26T05:11:26.966Z,20.61
2022-07-26T05:16:28.194Z,20.69
2022-07-26T05:21:29.285Z,20.47
2022-07-26T05:26:31.432Z,20.46
2022-07-26T05:31:30.631Z,20.41
2022-07-26T05:36:32.744Z,20.27
2022-07-26T05:41:31.891Z,20.16
2022-07-26T05:46:33.059Z,20.38
2022-07-26T05:51:35.200Z,20.28
2022-07-26T05:56:34.305Z,19.97
2022-07-26T06:01:35.418Z,19.98
2022-07-26T06:06:35.169Z,20.18
2022-07-26T06:11:38.302Z,20.65
2022-07-26T06:16:38.497Z,20.81
2022-07-26T06:21:38.623Z,20.80
2022-07-26T06:26:37.722Z,20.65
2022-07-26T06:31:38.908Z,20.62
2022-07-26T06:36:40.011Z,20.62
2022-07-26T06:41:41.186Z,20.38
2022-07-26T06:46:44.326Z,20.62
2022-07-26T06:51:43.110Z,20.84
2022-07-26T06:56:46.234Z,20.66
2022-07-26T07:01:51.426Z,20.79
2022-07-26T07:06:47.424Z,20.87
2022-07-26T07:11:48.889Z,20.91
2022-07-26T07:16:47.845Z,20.96
2022-07-26T07:21:47.024Z,21.29
2022-07-26T07:26:48.223Z,21.51
2022-07-26T07:31:53.412Z,21.91
2022-07-26T07:36:49.642Z,21.85
2022-07-26T07:41:51.785Z,22.19
2022-07-26T07:46:50.894Z,22.10
2022-07-26T07:51:52.023Z,22.41
2022-07-26T07:56:53.149Z,22.96
2022-07-26T08:01:55.268Z,22.65
2022-07-26T08:06:54.531Z,22.41
2022-07-26T08:11:55.802Z,21.51
2022-07-26T08:16:56.537Z,21.94
2022-07-26T08:21:55.621Z,22.04
2022-07-26T08:26:56.353Z,21.66
2022-07-26T08:31:57.537Z,21.57
2022-07-26T08:37:15.806Z,21.72
2022-07-26T08:41:58.763Z,21.46
2022-07-26T08:47:00.023Z,21.24
2022-07-26T08:52:02.153Z,20.20
2022-07-26T08:57:05.348Z,20.34
2022-07-26T09:02:03.459Z,20.91
2022-07-26T09:07:03.618Z,20.68
2022-07-26T09:12:03.760Z,20.62
2022-07-26T09:17:04.095Z,21.26
2022-07-26T09:22:06.034Z,21.60
2022-07-26T09:27:03.294Z,21.42
2022-07-26T09:32:04.640Z,21.64
2022-07-26T09:37:11.364Z,22.02
2022-07-26T09:42:26.732Z,22.57
2022-07-26T09:47:06.843Z,22.69
2022-07-26T09:52:06.046Z,23.23
2022-07-26T09:57:06.285Z,23.67
2022-07-26T10:02:09.457Z,24.14
2022-07-26T10:07:10.711Z,24.47
2022-07-26T10:12:09.843Z,24.47
2022-07-26T10:17:09.996Z,24.56
2022-07-26T10:22:10.535Z,24.56
2022-07-26T10:27:11.670Z,24.67
2022-07-26T10:32:13.787Z,24.57
2022-07-26T10:37:12.899Z,24.56
2022-07-26T10:42:14.025Z,24.67
2022-07-26T10:47:15.168Z,24.57
2022-07-26T10:52:16.356Z,24.13
2022-07-26T10:57:18.538Z,24.71
2022-07-26T11:02:17.772Z,24.94
2022-07-26T11:07:19.939Z,25.35
2022-07-26T11:12:20.103Z,25.65
2022-07-26T11:17:19.274Z,25.12
2022-07-26T11:22:20.499Z,24.38
2022-07-26T11:27:21.693Z,25.09
2022-07-26T11:32:23.907Z,25.38
2022-07-26T11:37:24.244Z,25.24
2022-07-26T11:42:23.386Z,25.31
2022-07-26T11:47:26.257Z,25.68
2022-07-26T11:52:25.995Z,26.17
2022-07-26T11:57:28.117Z,25.67
2022-07-26T12:02:27.261Z,26.61
2022-07-26T12:07:28.420Z,27.47
2022-07-26T12:12:29.521Z,26.59
2022-07-26T12:17:35.086Z,27.28
2022-07-26T12:22:30.693Z,28.16
2022-07-26T12:27:31.834Z,27.51
2022-07-26T12:32:33.943Z,27.77
2022-07-26T12:37:40.323Z,28.38
2022-07-26T12:42:34.624Z,27.98
2022-07-26T12:47:34.855Z,27.94
2022-07-26T12:52:34.980Z,26.55
2022-07-26T12:57:34.189Z,26.04
2022-07-26T13:02:34.055Z,26.74
2022-07-26T13:07:36.150Z,27.26
2022-07-26T13:12:35.382Z,27.53
2022-07-26T13:17:36.578Z,27.73
2022-07-26T13:22:37.740Z,27.79
2022-07-26T13:27:40.317Z,28.53
2022-07-26T13:32:39.889Z,28.36
2022-07-26T13:37:41.121Z,26.98
2022-07-26T13:42:42.268Z,27.04
2022-07-26T13:47:43.372Z,28.31
2022-07-26T13:52:44.580Z,28.63
2022-07-26T13:57:56.208Z,27.94
2022-07-26T14:02:45.833Z,27.26
2022-07-26T14:07:47.053Z,27.01
2022-07-26T14:12:48.250Z,27.01
2022-07-26T14:17:49.438Z,27.38
2022-07-26T14:22:50.632Z,27.57
2022-07-26T14:27:51.830Z,27.09
2022-07-26T14:32:54.008Z,26.69
2022-07-26T14:37:53.321Z,26.86
2022-07-26T14:42:54.540Z,27.59
2022-07-26T14:47:56.747Z,27.92
2022-07-26T14:52:56.859Z,27.73
2022-07-26T14:57:56.092Z,27.10
2022-07-26T15:02:57.306Z,26.89
2022-07-26T15:08:01.611Z,27.20
2022-07-26T15:12:59.534Z,27.39
2022-07-26T15:17:58.697Z,27.95
2022-07-26T15:22:59.962Z,28.78
2022-07-26T15:28:03.072Z,29.33
2022-07-26T15:33:02.239Z,29.33
2022-07-26T15:38:03.444Z,29.08
2022-07-26T15:43:04.709Z,28.68
2022-07-26T15:48:14.927Z,28.36
2022-07-26T15:53:05.306Z,29.06
2022-07-26T15:58:06.488Z,30.11
2022-07-26T16:03:07.591Z,30.69
2022-07-26T16:08:08.797Z,31.23
2022-07-26T16:13:09.992Z,31.43
2022-07-26T16:18:12.217Z,31.49
2022-07-26T16:23:11.363Z,31.54
2022-07-26T16:28:12.496Z,31.80
2022-07-26T16:33:13.624Z,32.02
2022-07-26T16:38:14.756Z,31.76
2022-07-26T16:43:19.878Z,31.36
2022-07-26T16:48:18.011Z,29.90
2022-07-26T16:53:17.126Z,28.82
2022-07-26T16:58:19.255Z,28.48
2022-07-26T17:03:18.378Z,27.71
2022-07-26T17:08:20.485Z,26.86
2022-07-26T17:13:19.604Z,26.18
2022-07-26T17:18:20.712Z,26.18
2022-07-26T17:23:21.828Z,26.27
2022-07-26T17:28:23.971Z,26.04
2022-07-26T17:33:24.143Z,25.90
2022-07-26T17:38:23.294Z,25.83
2022-07-26T17:43:24.535Z,25.83
2022-07-26T17:48:24.516Z,25.67
2022-07-26T17:53:34.028Z,25.75
2022-07-26T17:58:26.672Z,25.79
2022-07-26T18:03:26.837Z,25.57
2022-07-26T18:08:27.205Z,25.27
2022-07-26T18:13:26.422Z,24.91
2022-07-26T18:18:27.593Z,24.87
2022-07-26T18:23:28.727Z,24.83
2022-07-26T18:28:29.849Z,24.68
2022-07-26T18:33:31.697Z,24.68
2022-07-26T18:38:30.976Z,24.38
2022-07-26T18:43:33.132Z,24.31
2022-07-26T18:48:32.292Z,24.01
2022-07-26T18:53:31.814Z,23.71
2022-07-26T18:58:33.919Z,23.58
2022-07-26T19:03:36.094Z,23.57
2022-07-26T19:08:33.217Z,23.58
2022-07-26T19:13:35.368Z,23.61
2022-07-26T19:18:34.517Z,23.67
2022-07-26T19:23:37.673Z,23.64
2022-07-26T19:28:37.006Z,23.60
2022-07-26T19:33:38.165Z,23.35
2022-07-26T19:38:40.317Z,23.22
2022-07-26T19:43:40.467Z,22.99
2022-07-26T19:48:40.674Z,22.89
2022-07-26T19:53:39.838Z,22.80
2022-07-26T19:58:41.005Z,22.90
2022-07-26T20:03:43.172Z,22.96
2022-07-26T20:08:42.318Z,23.05
2022-07-26T20:13:46.441Z,22.97
2022-07-26T20:18:43.548Z,22.89
2022-07-26T20:23:45.672Z,22.62
2022-07-26T20:28:44.819Z,22.35
2022-07-26T20:33:46.938Z,22.35
2022-07-26T20:38:51.120Z,22.28
2022-07-26T20:43:47.006Z,21.92
2022-07-26T20:48:48.056Z,21.76
2022-07-26T20:53:48.201Z,21.83
2022-07-26T20:58:48.298Z,21.54
2022-07-26T21:03:48.431Z,21.56
2022-07-26T21:08:47.629Z,21.60
2022-07-26T21:13:48.746Z,21.48
2022-07-26T21:18:52.677Z,21.60
2022-07-26T21:23:52.362Z,21.51
2022-07-26T21:28:51.465Z,21.67
2022-07-26T21:33:52.582Z,21.82
2022-07-26T21:38:53.786Z,21.82
2022-07-26T21:43:55.937Z,21.75
2022-07-26T21:48:55.087Z,21.64
2022-07-26T21:53:56.205Z,21.48
2022-07-26T21:58:59.369Z,20.89
2022-07-26T22:03:57.496Z,20.90
2022-07-26T22:09:04.583Z,20.76
2022-07-26T22:14:00.713Z,20.53
2022-07-26T22:18:58.855Z,20.39
2022-07-26T22:23:59.466Z,20.43
2022-07-26T22:29:02.648Z,20.46
2022-07-26T22:34:01.776Z,20.21
2022-07-26T22:39:02.935Z,20.10
2022-07-26T22:44:04.057Z,20.03
2022-07-26T22:49:05.211Z,19.98
2022-07-26T22:54:05.146Z,20.05
2022-07-26T22:59:07.266Z,19.97
2022-07-26T23:04:06.494Z,19.91
2022-07-26T23:09:07.014Z,19.84
2022-07-26T23:14:08.125Z,19.95
2022-07-26T23:19:10.577Z,19.86
2022-07-26T23:24:09.815Z,19.83
2022-07-26T23:29:12.327Z,19.48
2022-07-26T23:34:12.678Z,19.36
2022-07-26T23:39:12.171Z,19.29
2022-07-26T23:44:11.487Z,19.31
2022-07-26T23:49:13.052Z,19.29
2022-07-26T23:54:12.467Z,18.98
2022-07-26T23:59:14.020Z,18.95
